sensor_id;sensor_type;location;lat;lon;timestamp;P1;durP1;ratioP1;P2;durP2;ratioP2
38224;SDS011;24025;48.138;11.428;2022-08-30T00:00:39;4.97;;;4.50;;
38224;SDS011;24025;48.138;11.428;2022-08-30T00:03:32;15.93;;;4.90;;
38224;SDS011;24025;48.138;11.428;2022-08-30T00:06:16;5.38;;;4.50;;
38224;SDS011;24025;48.138;11.428;2022-08-30T00:08:48;5.20;;;4.65;;
38224;SDS011;24025;48.138;11.428;2022-08-30T00:11:21;6.72;;;5.78;;
38224;SDS011;24025;48.138;11.428;2022-08-30T00:13:55;5.72;;;4.82;;
38224;SDS011;24025;48.138;11.428;2022-08-30T00:16:26;4.88;;;4.00;;
38224;SDS011;24025;48.138;11.428;2022-08-30T00:18:57;7.22;;;4.43;;
38224;SDS011;24025;48.138;11.428;2022-08-30T00:21:28;5.53;;;4.13;;
38224;SDS011;24025;48.138;11.428;2022-08-30T00:23:58;6.95;;;4.60;;
38224;SDS011;24025;48.138;11.428;2022-08-30T00:26:28;7.10;;;4.68;;
38224;SDS011;24025;48.138;11.428;2022-08-30T00:28:59;5.88;;;4.18;;
38224;SDS011;24025;48.138;11.428;2022-08-30T00:31:29;6.50;;;5.07;;
38224;SDS011;24025;48.138;11.428;2022-08-30T00:34:00;6.47;;;5.00;;
38224;SDS011;24025;48.138;11.428;2022-08-30T00:36:30;6.13;;;4.50;;
38224;SDS011;24025;48.138;11.428;2022-08-30T00:39:01;7.60;;;5.20;;
38224;SDS011;24025;48.138;11.428;2022-08-30T00:41:32;5.22;;;4.65;;
38224;SDS011;24025;48.138;11.428;2022-08-30T00:44:03;4.53;;;4.13;;
38224;SDS011;24025;48.138;11.428;2022-08-30T00:46:33;4.70;;;4.28;;
38224;SDS011;24025;48.138;11.428;2022-08-30T00:49:05;4.82;;;4.10;;
38224;SDS011;24025;48.138;11.428;2022-08-30T00:51:40;8.25;;;4.07;;
38224;SDS011;24025;48.138;11.428;2022-08-30T00:54:11;5.83;;;4.20;;
38224;SDS011;24025;48.138;11.428;2022-08-30T00:56:41;6.85;;;4.60;;
38224;SDS011;24025;48.138;11.428;2022-08-30T00:59:12;10.32;;;4.57;;
38224;SDS011;24025;48.138;11.428;2022-08-30T01:01:42;5.22;;;4.10;;
38224;SDS011;24025;48.138;11.428;2022-08-30T01:04:14;7.15;;;4.82;;
38224;SDS011;24025;48.138;11.428;2022-08-30T01:06:45;5.88;;;4.30;;
38224;SDS011;24025;48.138;11.428;2022-08-30T01:09:15;5.43;;;4.88;;
38224;SDS011;24025;48.138;11.428;2022-08-30T01:11:46;5.28;;;4.40;;
38224;SDS011;24025;48.138;11.428;2022-08-30T01:14:17;6.28;;;4.50;;
38224;SDS011;24025;48.138;11.428;2022-08-30T01:16:51;5.43;;;3.97;;
38224;SDS011;24025;48.138;11.428;2022-08-30T01:19:33;5.20;;;4.70;;
38224;SDS011;24025;48.138;11.428;2022-08-30T01:22:24;6.03;;;4.32;;
38224;SDS011;24025;48.138;11.428;2022-08-30T01:25:01;6.95;;;4.35;;
38224;SDS011;24025;48.138;11.428;2022-08-30T01:27:35;6.63;;;4.95;;
38224;SDS011;24025;48.138;11.428;2022-08-30T01:30:08;11.38;;;5.05;;
38224;SDS011;24025;48.138;11.428;2022-08-30T01:32:41;6.03;;;3.97;;
38224;SDS011;24025;48.138;11.428;2022-08-30T01:35:15;4.72;;;4.25;;
38224;SDS011;24025;48.138;11.428;2022-08-30T01:37:47;6.25;;;4.72;;
38224;SDS011;24025;48.138;11.428;2022-08-30T01:40:18;6.93;;;4.25;;
38224;SDS011;24025;48.138;11.428;2022-08-30T01:42:48;5.22;;;4.13;;
38224;SDS011;24025;48.138;11.428;2022-08-30T01:45:19;6.35;;;4.45;;
38224;SDS011;24025;48.138;11.428;2022-08-30T01:47:49;5.63;;;4.70;;
38224;SDS011;24025;48.138;11.428;2022-08-30T01:50:20;5.15;;;4.65;;
38224;SDS011;24025;48.138;11.428;2022-08-30T01:52:50;7.05;;;3.97;;
38224;SDS011;24025;48.138;11.428;2022-08-30T01:55:21;7.85;;;4.03;;
38224;SDS011;24025;48.138;11.428;2022-08-30T01:57:52;4.68;;;4.20;;
38224;SDS011;24025;48.138;11.428;2022-08-30T02:00:22;8.95;;;4.40;;
38224;SDS011;24025;48.138;11.428;2022-08-30T02:02:53;4.88;;;4.32;;
38224;SDS011;24025;48.138;11.428;2022-08-30T02:05:23;8.60;;;4.65;;
38224;SDS011;24025;48.138;11.428;2022-08-30T02:07:54;5.22;;;4.07;;
38224;SDS011;24025;48.138;11.428;2022-08-30T02:10:25;5.50;;;4.78;;
38224;SDS011;24025;48.138;11.428;2022-08-30T02:12:55;4.97;;;4.47;;
38224;SDS011;24025;48.138;11.428;2022-08-30T02:15:26;5.45;;;4.13;;
38224;SDS011;24025;48.138;11.428;2022-08-30T02:17:57;10.95;;;4.20;;
38224;SDS011;24025;48.138;11.428;2022-08-30T02:20:27;5.28;;;4.63;;
38224;SDS011;24025;48.138;11.428;2022-08-30T02:22:57;10.00;;;5.30;;
38224;SDS011;24025;48.138;11.428;2022-08-30T02:25:28;5.32;;;4.82;;
38224;SDS011;24025;48.138;11.428;2022-08-30T02:27:58;5.32;;;4.78;;
38224;SDS011;24025;48.138;11.428;2022-08-30T02:30:29;4.78;;;4.13;;
38224;SDS011;24025;48.138;11.428;2022-08-30T02:32:59;6.60;;;4.13;;
38224;SDS011;24025;48.138;11.428;2022-08-30T02:35:29;7.47;;;4.50;;
38224;SDS011;24025;48.138;11.428;2022-08-30T02:38:00;4.75;;;4.20;;
38224;SDS011;24025;48.138;11.428;2022-08-30T02:40:30;6.18;;;5.45;;
38224;SDS011;24025;48.138;11.428;2022-08-30T02:43:01;6.40;;;4.53;;
38224;SDS011;24025;48.138;11.428;2022-08-30T02:45:31;7.65;;;4.40;;
38224;SDS011;24025;48.138;11.428;2022-08-30T02:48:02;5.20;;;4.32;;
38224;SDS011;24025;48.138;11.428;2022-08-30T02:50:33;8.27;;;5.22;;
38224;SDS011;24025;48.138;11.428;2022-08-30T02:53:04;5.10;;;4.25;;
38224;SDS011;24025;48.138;11.428;2022-08-30T02:55:34;6.25;;;4.70;;
38224;SDS011;24025;48.138;11.428;2022-08-30T02:58:05;5.75;;;4.28;;
38224;SDS011;24025;48.138;11.428;2022-08-30T03:00:36;5.95;;;4.50;;
38224;SDS011;24025;48.138;11.428;2022-08-30T03:03:07;6.95;;;4.50;;
38224;SDS011;24025;48.138;11.428;2022-08-30T03:05:37;6.70;;;4.10;;
38224;SDS011;24025;48.138;11.428;2022-08-30T03:08:08;5.43;;;4.05;;
38224;SDS011;24025;48.138;11.428;2022-08-30T03:10:38;6.95;;;4.28;;
38224;SDS011;24025;48.138;11.428;2022-08-30T03:13:09;6.60;;;4.47;;
38224;SDS011;24025;48.138;11.428;2022-08-30T03:15:40;4.70;;;4.20;;
38224;SDS011;24025;48.138;11.428;2022-08-30T03:18:11;10.65;;;5.40;;
38224;SDS011;24025;48.138;11.428;2022-08-30T03:20:41;5.68;;;4.30;;
38224;SDS011;24025;48.138;11.428;2022-08-30T03:23:11;7.60;;;4.20;;
38224;SDS011;24025;48.138;11.428;2022-08-30T03:25:42;5.38;;;3.67;;
38224;SDS011;24025;48.138;11.428;2022-08-30T03:28:13;9.52;;;4.15;;
38224;SDS011;24025;48.138;11.428;2022-08-30T03:30:43;5.30;;;4.50;;
38224;SDS011;24025;48.138;11.428;2022-08-30T03:33:13;5.35;;;3.95;;
38224;SDS011;24025;48.138;11.428;2022-08-30T03:35:44;7.85;;;4.68;;
38224;SDS011;24025;48.138;11.428;2022-08-30T03:38:15;6.55;;;4.80;;
38224;SDS011;24025;48.138;11.428;2022-08-30T03:40:45;6.78;;;4.60;;
38224;SDS011;24025;48.138;11.428;2022-08-30T03:43:17;5.60;;;3.80;;
38224;SDS011;24025;48.138;11.428;2022-08-30T03:45:47;5.40;;;4.22;;
38224;SDS011;24025;48.138;11.428;2022-08-30T03:48:17;5.35;;;4.40;;
38224;SDS011;24025;48.138;11.428;2022-08-30T03:50:48;4.30;;;3.90;;
38224;SDS011;24025;48.138;11.428;2022-08-30T03:53:18;4.72;;;4.10;;
38224;SDS011;24025;48.138;11.428;2022-08-30T03:55:49;4.75;;;4.13;;
38224;SDS011;24025;48.138;11.428;2022-08-30T03:58:19;4.93;;;4.50;;
38224;SDS011;24025;48.138;11.428;2022-08-30T04:00:50;5.22;;;4.00;;
38224;SDS011;24025;48.138;11.428;2022-08-30T04:03:20;4.63;;;3.92;;
38224;SDS011;24025;48.138;11.428;2022-08-30T04:05:54;5.22;;;4.50;;
38224;SDS011;24025;48.138;11.428;2022-08-30T04:08:25;7.38;;;4.10;;
38224;SDS011;24025;48.138;11.428;2022-08-30T04:10:56;4.80;;;4.30;;
38224;SDS011;24025;48.138;11.428;2022-08-30T04:13:28;5.68;;;4.22;;
38224;SDS011;24025;48.138;11.428;2022-08-30T04:15:58;4.80;;;4.28;;
38224;SDS011;24025;48.138;11.428;2022-08-30T04:18:29;6.43;;;4.18;;
38224;SDS011;24025;48.138;11.428;2022-08-30T04:21:00;4.28;;;3.88;;
38224;SDS011;24025;48.138;11.428;2022-08-30T04:23:31;4.93;;;3.83;;
38224;SDS011;24025;48.138;11.428;2022-08-30T04:26:02;5.75;;;4.32;;
38224;SDS011;24025;48.138;11.428;2022-08-30T04:28:32;4.57;;;3.75;;
38224;SDS011;24025;48.138;11.428;2022-08-30T04:31:08;4.97;;;3.67;;
38224;SDS011;24025;48.138;11.428;2022-08-30T04:33:43;6.93;;;3.72;;
38224;SDS011;24025;48.138;11.428;2022-08-30T04:36:14;4.68;;;3.63;;
38224;SDS011;24025;48.138;11.428;2022-08-30T04:38:44;8.63;;;3.70;;
38224;SDS011;24025;48.138;11.428;2022-08-30T04:41:15;5.65;;;4.10;;
38224;SDS011;24025;48.138;11.428;2022-08-30T04:43:48;7.88;;;3.53;;
38224;SDS011;24025;48.138;11.428;2022-08-30T04:46:19;7.82;;;4.30;;
38224;SDS011;24025;48.138;11.428;2022-08-30T04:48:50;4.50;;;3.67;;
38224;SDS011;24025;48.138;11.428;2022-08-30T04:51:20;4.53;;;3.88;;
38224;SDS011;24025;48.138;11.428;2022-08-30T04:53:50;5.90;;;4.28;;
38224;SDS011;24025;48.138;11.428;2022-08-30T04:56:21;4.68;;;4.10;;
38224;SDS011;24025;48.138;11.428;2022-08-30T04:58:54;4.68;;;3.85;;
38224;SDS011;24025;48.138;11.428;2022-08-30T05:01:26;6.00;;;4.43;;
38224;SDS011;24025;48.138;11.428;2022-08-30T05:03:58;8.23;;;5.22;;
38224;SDS011;24025;48.138;11.428;2022-08-30T05:06:29;5.57;;;4.82;;
38224;SDS011;24025;48.138;11.428;2022-08-30T05:09:02;8.98;;;4.45;;
38224;SDS011;24025;48.138;11.428;2022-08-30T05:11:33;5.88;;;4.50;;
38224;SDS011;24025;48.138;11.428;2022-08-30T05:14:03;12.88;;;5.80;;
38224;SDS011;24025;48.138;11.428;2022-08-30T05:16:34;16.45;;;4.30;;
38224;SDS011;24025;48.138;11.428;2022-08-30T05:19:05;5.53;;;4.70;;
38224;SDS011;24025;48.138;11.428;2022-08-30T05:21:36;11.88;;;4.45;;
38224;SDS011;24025;48.138;11.428;2022-08-30T05:24:09;4.93;;;4.43;;
38224;SDS011;24025;48.138;11.428;2022-08-30T05:26:39;6.22;;;4.78;;
38224;SDS011;24025;48.138;11.428;2022-08-30T05:29:10;8.13;;;4.40;;
38224;SDS011;24025;48.138;11.428;2022-08-30T05:31:42;6.47;;;4.35;;
38224;SDS011;24025;48.138;11.428;2022-08-30T05:34:13;7.35;;;4.07;;
38224;SDS011;24025;48.138;11.428;2022-08-30T05:36:44;7.20;;;4.32;;
38224;SDS011;24025;48.138;11.428;2022-08-30T05:39:14;7.22;;;4.78;;
38224;SDS011;24025;48.138;11.428;2022-08-30T05:41:44;5.00;;;4.50;;
38224;SDS011;24025;48.138;11.428;2022-08-30T05:44:15;7.93;;;4.88;;
38224;SDS011;24025;48.138;11.428;2022-08-30T05:46:45;6.68;;;4.88;;
38224;SDS011;24025;48.138;11.428;2022-08-30T05:49:16;6.33;;;4.80;;
38224;SDS011;24025;48.138;11.428;2022-08-30T05:51:47;7.45;;;4.80;;
38224;SDS011;24025;48.138;11.428;2022-08-30T05:54:18;6.38;;;5.00;;
38224;SDS011;24025;48.138;11.428;2022-08-30T05:56:48;9.95;;;5.03;;
38224;SDS011;24025;48.138;11.428;2022-08-30T05:59:18;5.40;;;4.80;;
38224;SDS011;24025;48.138;11.428;2022-08-30T06:01:49;7.28;;;5.35;;
38224;SDS011;24025;48.138;11.428;2022-08-30T06:04:19;5.32;;;4.82;;
38224;SDS011;24025;48.138;11.428;2022-08-30T06:06:50;8.63;;;4.68;;
38224;SDS011;24025;48.138;11.428;2022-08-30T06:09:20;7.90;;;4.63;;
38224;SDS011;24025;48.138;11.428;2022-08-30T06:11:51;5.78;;;4.82;;
38224;SDS011;24025;48.138;11.428;2022-08-30T06:14:21;7.47;;;5.18;;
38224;SDS011;24025;48.138;11.428;2022-08-30T06:16:52;7.00;;;4.53;;
38224;SDS011;24025;48.138;11.428;2022-08-30T06:19:22;6.65;;;4.88;;
38224;SDS011;24025;48.138;11.428;2022-08-30T06:21:53;8.10;;;4.50;;
38224;SDS011;24025;48.138;11.428;2022-08-30T06:24:23;7.53;;;4.72;;
38224;SDS011;24025;48.138;11.428;2022-08-30T06:26:54;5.13;;;4.32;;
38224;SDS011;24025;48.138;11.428;2022-08-30T06:29:24;5.18;;;4.65;;
38224;SDS011;24025;48.138;11.428;2022-08-30T06:31:55;7.93;;;4.65;;
38224;SDS011;24025;48.138;11.428;2022-08-30T06:34:26;6.22;;;4.32;;
38224;SDS011;24025;48.138;11.428;2022-08-30T06:36:57;11.70;;;5.38;;
38224;SDS011;24025;48.138;11.428;2022-08-30T06:39:27;7.53;;;4.30;;
38224;SDS011;24025;48.138;11.428;2022-08-30T06:41:58;5.13;;;4.63;;
38224;SDS011;24025;48.138;11.428;2022-08-30T06:44:28;5.53;;;4.60;;
38224;SDS011;24025;48.138;11.428;2022-08-30T06:46:58;6.47;;;4.45;;
38224;SDS011;24025;48.138;11.428;2022-08-30T06:49:29;5.38;;;4.38;;
38224;SDS011;24025;48.138;11.428;2022-08-30T06:51:59;4.50;;;4.10;;
38224;SDS011;24025;48.138;11.428;2022-08-30T06:54:30;5.10;;;4.60;;
38224;SDS011;24025;48.138;11.428;2022-08-30T06:57:00;5.30;;;4.80;;
38224;SDS011;24025;48.138;11.428;2022-08-30T06:59:31;4.85;;;4.32;;
38224;SDS011;24025;48.138;11.428;2022-08-30T07:02:01;6.72;;;4.45;;
38224;SDS011;24025;48.138;11.428;2022-08-30T07:04:32;10.00;;;4.60;;
38224;SDS011;24025;48.138;11.428;2022-08-30T07:07:02;6.00;;;4.25;;
38224;SDS011;24025;48.138;11.428;2022-08-30T07:09:33;5.78;;;4.25;;
38224;SDS011;24025;48.138;11.428;2022-08-30T07:12:04;9.40;;;3.95;;
38224;SDS011;24025;48.138;11.428;2022-08-30T07:14:35;5.97;;;4.07;;
38224;SDS011;24025;48.138;11.428;2022-08-30T07:17:06;8.07;;;4.35;;
38224;SDS011;24025;48.138;11.428;2022-08-30T07:19:57;8.93;;;4.47;;
38224;SDS011;24025;48.138;11.428;2022-08-30T07:22:27;5.85;;;4.30;;
38224;SDS011;24025;48.138;11.428;2022-08-30T07:24:58;4.78;;;4.22;;
38224;SDS011;24025;48.138;11.428;2022-08-30T07:27:29;7.80;;;4.38;;
38224;SDS011;24025;48.138;11.428;2022-08-30T07:30:00;6.87;;;4.67;;
38224;SDS011;24025;48.138;11.428;2022-08-30T07:32:32;5.75;;;4.53;;
38224;SDS011;24025;48.138;11.428;2022-08-30T07:35:02;6.95;;;5.22;;
38224;SDS011;24025;48.138;11.428;2022-08-30T07:37:33;5.93;;;4.60;;
38224;SDS011;24025;48.138;11.428;2022-08-30T07:40:04;7.95;;;4.85;;
38224;SDS011;24025;48.138;11.428;2022-08-30T07:42:34;7.85;;;4.65;;
38224;SDS011;24025;48.138;11.428;2022-08-30T07:45:05;6.88;;;5.50;;
38224;SDS011;24025;48.138;11.428;2022-08-30T07:47:37;4.88;;;4.35;;
38224;SDS011;24025;48.138;11.428;2022-08-30T07:50:07;5.70;;;4.38;;
38224;SDS011;24025;48.138;11.428;2022-08-30T07:52:38;6.18;;;4.78;;
38224;SDS011;24025;48.138;11.428;2022-08-30T07:55:08;5.20;;;4.68;;
38224;SDS011;24025;48.138;11.428;2022-08-30T07:57:39;6.38;;;4.85;;
38224;SDS011;24025;48.138;11.428;2022-08-30T08:00:10;12.43;;;5.13;;
38224;SDS011;24025;48.138;11.428;2022-08-30T08:02:40;6.13;;;5.00;;
38224;SDS011;24025;48.138;11.428;2022-08-30T08:05:11;6.43;;;4.75;;
38224;SDS011;24025;48.138;11.428;2022-08-30T08:07:43;8.73;;;4.68;;
38224;SDS011;24025;48.138;11.428;2022-08-30T08:10:14;6.47;;;4.78;;
38224;SDS011;24025;48.138;11.428;2022-08-30T08:12:45;6.93;;;5.10;;
38224;SDS011;24025;48.138;11.428;2022-08-30T08:15:15;6.35;;;4.85;;
38224;SDS011;24025;48.138;11.428;2022-08-30T08:17:46;9.38;;;5.13;;
38224;SDS011;24025;48.138;11.428;2022-08-30T08:20:16;8.73;;;4.78;;
38224;SDS011;24025;48.138;11.428;2022-08-30T08:22:47;5.82;;;4.97;;
38224;SDS011;24025;48.138;11.428;2022-08-30T08:25:17;6.22;;;4.88;;
38224;SDS011;24025;48.138;11.428;2022-08-30T08:27:49;8.40;;;5.50;;
38224;SDS011;24025;48.138;11.428;2022-08-30T08:30:20;10.02;;;5.43;;
38224;SDS011;24025;48.138;11.428;2022-08-30T08:32:51;9.70;;;4.75;;
38224;SDS011;24025;48.138;11.428;2022-08-30T08:35:22;12.18;;;5.55;;
38224;SDS011;24025;48.138;11.428;2022-08-30T08:37:53;5.72;;;5.18;;
38224;SDS011;24025;48.138;11.428;2022-08-30T08:40:23;10.00;;;5.50;;
38224;SDS011;24025;48.138;11.428;2022-08-30T08:43:09;11.13;;;5.32;;
38224;SDS011;24025;48.138;11.428;2022-08-30T08:48:32;8.43;;;5.22;;
38224;SDS011;24025;48.138;11.428;2022-08-30T08:51:11;6.80;;;5.25;;
38224;SDS011;24025;48.138;11.428;2022-08-30T08:54:07;10.45;;;5.43;;
38224;SDS011;24025;48.138;11.428;2022-08-30T08:56:41;8.55;;;5.63;;
38224;SDS011;24025;48.138;11.428;2022-08-30T08:59:12;5.80;;;4.95;;
38224;SDS011;24025;48.138;11.428;2022-08-30T09:01:45;12.85;;;4.90;;
38224;SDS011;24025;48.138;11.428;2022-08-30T09:04:19;6.47;;;4.65;;
38224;SDS011;24025;48.138;11.428;2022-08-30T09:07:01;5.07;;;3.83;;
38224;SDS011;24025;48.138;11.428;2022-08-30T09:09:36;9.05;;;4.60;;
38224;SDS011;24025;48.138;11.428;2022-08-30T09:12:10;8.32;;;4.28;;
38224;SDS011;24025;48.138;11.428;2022-08-30T09:14:46;10.02;;;3.92;;
38224;SDS011;24025;48.138;11.428;2022-08-30T09:17:21;13.43;;;4.05;;
38224;SDS011;24025;48.138;11.428;2022-08-30T09:22:36;6.37;;;4.70;;
38224;SDS011;24025;48.138;11.428;2022-08-30T09:25:30;12.68;;;5.32;;
38224;SDS011;24025;48.138;11.428;2022-08-30T09:28:09;4.70;;;4.00;;
38224;SDS011;24025;48.138;11.428;2022-08-30T09:30:56;7.07;;;4.93;;
38224;SDS011;24025;48.138;11.428;2022-08-30T09:33:31;5.90;;;3.95;;
38224;SDS011;24025;48.138;11.428;2022-08-30T09:36:13;8.88;;;4.43;;
38224;SDS011;24025;48.138;11.428;2022-08-30T09:38:58;7.13;;;3.80;;
38224;SDS011;24025;48.138;11.428;2022-08-30T09:41:41;4.63;;;3.90;;
38224;SDS011;24025;48.138;11.428;2022-08-30T09:44:24;4.65;;;3.78;;
38224;SDS011;24025;48.138;11.428;2022-08-30T09:46:59;6.93;;;3.58;;
38224;SDS011;24025;48.138;11.428;2022-08-30T09:57:46;3.97;;;3.42;;
38224;SDS011;24025;48.138;11.428;2022-08-30T10:00:27;5.25;;;3.70;;
38224;SDS011;24025;48.138;11.428;2022-08-30T10:06:01;3.78;;;2.63;;
38224;SDS011;24025;48.138;11.428;2022-08-30T10:08:43;5.13;;;3.45;;
38224;SDS011;24025;48.138;11.428;2022-08-30T10:17:06;4.30;;;3.90;;
38224;SDS011;24025;48.138;11.428;2022-08-30T10:19:55;4.75;;;3.35;;
38224;SDS011;24025;48.138;11.428;2022-08-30T10:25:47;3.53;;;3.22;;
38224;SDS011;24025;48.138;11.428;2022-08-30T10:34:15;4.80;;;2.85;;
38224;SDS011;24025;48.138;11.428;2022-08-30T10:37:12;4.78;;;2.95;;
38224;SDS011;24025;48.138;11.428;2022-08-30T10:39:48;9.60;;;3.08;;
38224;SDS011;24025;48.138;11.428;2022-08-30T10:42:25;4.18;;;3.03;;
38224;SDS011;24025;48.138;11.428;2022-08-30T10:45:04;5.15;;;3.47;;
38224;SDS011;24025;48.138;11.428;2022-08-30T10:47:45;3.58;;;2.78;;
38224;SDS011;24025;48.138;11.428;2022-08-30T10:50:24;5.88;;;3.47;;
38224;SDS011;24025;48.138;11.428;2022-08-30T10:53:09;9.25;;;3.47;;
38224;SDS011;24025;48.138;11.428;2022-08-30T10:55:48;4.22;;;3.00;;
38224;SDS011;24025;48.138;11.428;2022-08-30T10:58:22;4.70;;;2.88;;
38224;SDS011;24025;48.138;11.428;2022-08-30T11:09:30;8.32;;;3.97;;
38224;SDS011;24025;48.138;11.428;2022-08-30T11:12:20;4.80;;;3.53;;
38224;SDS011;24025;48.138;11.428;2022-08-30T11:15:18;9.80;;;4.05;;
38224;SDS011;24025;48.138;11.428;2022-08-30T11:17:54;7.68;;;3.85;;
38224;SDS011;24025;48.138;11.428;2022-08-30T11:20:33;3.90;;;3.20;;
38224;SDS011;24025;48.138;11.428;2022-08-30T11:26:00;15.15;;;4.20;;
38224;SDS011;24025;48.138;11.428;2022-08-30T11:31:40;4.40;;;3.35;;
38224;SDS011;24025;48.138;11.428;2022-08-30T11:34:06;8.00;;;3.25;;
38224;SDS011;24025;48.138;11.428;2022-08-30T11:39:08;4.63;;;3.10;;
38224;SDS011;24025;48.138;11.428;2022-08-30T11:42:30;3.10;;;2.83;;
38224;SDS011;24025;48.138;11.428;2022-08-30T11:50:28;4.80;;;3.10;;
38224;SDS011;24025;48.138;11.428;2022-08-30T11:59:34;5.97;;;2.72;;
38224;SDS011;24025;48.138;11.428;2022-08-30T12:05:43;4.25;;;3.17;;
38224;SDS011;24025;48.138;11.428;2022-08-30T12:08:09;6.72;;;3.17;;
38224;SDS011;24025;48.138;11.428;2022-08-30T12:10:50;5.18;;;3.15;;
38224;SDS011;24025;48.138;11.428;2022-08-30T12:18:45;3.58;;;3.28;;
38224;SDS011;24025;48.138;11.428;2022-08-30T12:26:35;5.20;;;3.20;;
38224;SDS011;24025;48.138;11.428;2022-08-30T12:39:41;5.75;;;2.97;;
38224;SDS011;24025;48.138;11.428;2022-08-30T12:44:46;5.53;;;3.15;;
38224;SDS011;24025;48.138;11.428;2022-08-30T12:47:19;3.45;;;3.15;;
38224;SDS011;24025;48.138;11.428;2022-08-30T12:49:54;7.55;;;3.38;;
38224;SDS011;24025;48.138;11.428;2022-08-30T12:57:53;4.63;;;3.25;;
38224;SDS011;24025;48.138;11.428;2022-08-30T13:00:25;15.65;;;3.92;;
38224;SDS011;24025;48.138;11.428;2022-08-30T13:06:04;4.65;;;3.50;;
38224;SDS011;24025;48.138;11.428;2022-08-30T13:13:52;3.88;;;3.08;;
38224;SDS011;24025;48.138;11.428;2022-08-30T13:16:34;4.95;;;2.92;;
38224;SDS011;24025;48.138;11.428;2022-08-30T13:25:05;4.18;;;2.95;;
38224;SDS011;24025;48.138;11.428;2022-08-30T13:27:38;5.45;;;3.25;;
38224;SDS011;24025;48.138;11.428;2022-08-30T13:30:10;5.97;;;3.40;;
38224;SDS011;24025;48.138;11.428;2022-08-30T13:32:43;5.15;;;3.22;;
38224;SDS011;24025;48.138;11.428;2022-08-30T13:35:13;3.80;;;3.40;;
38224;SDS011;24025;48.138;11.428;2022-08-30T13:37:44;6.60;;;3.60;;
38224;SDS011;24025;48.138;11.428;2022-08-30T13:40:14;4.67;;;3.57;;
38224;SDS011;24025;48.138;11.428;2022-08-30T13:45:17;7.17;;;3.70;;
38224;SDS011;24025;48.138;11.428;2022-08-30T13:47:48;3.40;;;3.10;;
38224;SDS011;24025;48.138;11.428;2022-08-30T13:50:19;4.83;;;3.57;;
38224;SDS011;24025;48.138;11.428;2022-08-30T13:52:49;5.07;;;3.43;;
38224;SDS011;24025;48.138;11.428;2022-08-30T13:55:20;4.33;;;3.03;;
38224;SDS011;24025;48.138;11.428;2022-08-30T13:57:50;6.23;;;3.20;;
38224;SDS011;24025;48.138;11.428;2022-08-30T14:00:21;5.10;;;3.37;;
38224;SDS011;24025;48.138;11.428;2022-08-30T14:02:53;4.07;;;3.05;;
38224;SDS011;24025;48.138;11.428;2022-08-30T14:05:25;4.88;;;3.20;;
38224;SDS011;24025;48.138;11.428;2022-08-30T14:08:00;5.82;;;2.80;;
38224;SDS011;24025;48.138;11.428;2022-08-30T14:10:31;3.73;;;2.83;;
38224;SDS011;24025;48.138;11.428;2022-08-30T14:13:02;4.35;;;2.75;;
38224;SDS011;24025;48.138;11.428;2022-08-30T14:15:35;7.05;;;2.88;;
38224;SDS011;24025;48.138;11.428;2022-08-30T14:18:06;4.90;;;2.47;;
38224;SDS011;24025;48.138;11.428;2022-08-30T14:20:37;3.25;;;2.38;;
38224;SDS011;24025;48.138;11.428;2022-08-30T14:23:08;3.00;;;2.70;;
38224;SDS011;24025;48.138;11.428;2022-08-30T14:25:38;3.72;;;2.55;;
38224;SDS011;24025;48.138;11.428;2022-08-30T14:28:09;6.22;;;2.58;;
38224;SDS011;24025;48.138;11.428;2022-08-30T14:33:09;7.73;;;2.23;;
38224;SDS011;24025;48.138;11.428;2022-08-30T14:35:40;4.47;;;2.58;;
38224;SDS011;24025;48.138;11.428;2022-08-30T14:38:10;4.57;;;2.60;;
38224;SDS011;24025;48.138;11.428;2022-08-30T14:40:41;2.95;;;2.30;;
38224;SDS011;24025;48.138;11.428;2022-08-30T14:43:11;2.75;;;2.55;;
38224;SDS011;24025;48.138;11.428;2022-08-30T14:45:41;3.97;;;2.88;;
38224;SDS011;24025;48.138;11.428;2022-08-30T14:48:12;5.00;;;2.65;;
38224;SDS011;24025;48.138;11.428;2022-08-30T14:50:42;4.07;;;2.60;;
38224;SDS011;24025;48.138;11.428;2022-08-30T14:53:13;4.13;;;2.78;;
38224;SDS011;24025;48.138;11.428;2022-08-30T14:55:43;5.05;;;3.08;;
38224;SDS011;24025;48.138;11.428;2022-08-30T14:58:14;3.92;;;3.10;;
38224;SDS011;24025;48.138;11.428;2022-08-30T15:00:50;3.60;;;3.00;;
38224;SDS011;24025;48.138;11.428;2022-08-30T15:03:21;4.93;;;3.17;;
38224;SDS011;24025;48.138;11.428;2022-08-30T15:05:52;3.50;;;3.20;;
38224;SDS011;24025;48.138;11.428;2022-08-30T15:08:22;3.13;;;2.92;;
38224;SDS011;24025;48.138;11.428;2022-08-30T15:10:53;3.45;;;3.15;;
38224;SDS011;24025;48.138;11.428;2022-08-30T15:13:24;5.75;;;3.20;;
38224;SDS011;24025;48.138;11.428;2022-08-30T15:15:55;3.40;;;3.10;;
38224;SDS011;24025;48.138;11.428;2022-08-30T15:18:25;3.63;;;3.08;;
38224;SDS011;24025;48.138;11.428;2022-08-30T15:20:55;4.35;;;3.00;;
38224;SDS011;24025;48.138;11.428;2022-08-30T15:23:26;5.10;;;4.60;;
38224;SDS011;24025;48.138;11.428;2022-08-30T15:25:56;3.90;;;3.60;;
38224;SDS011;24025;48.138;11.428;2022-08-30T15:28:27;3.42;;;3.13;;
38224;SDS011;24025;48.138;11.428;2022-08-30T15:30:57;3.58;;;3.17;;
38224;SDS011;24025;48.138;11.428;2022-08-30T15:33:28;5.30;;;2.88;;
38224;SDS011;24025;48.138;11.428;2022-08-30T15:35:59;4.38;;;3.63;;
38224;SDS011;24025;48.138;11.428;2022-08-30T15:38:31;4.07;;;2.90;;
38224;SDS011;24025;48.138;11.428;2022-08-30T15:41:03;3.78;;;3.45;;
38224;SDS011;24025;48.138;11.428;2022-08-30T15:43:37;4.22;;;3.40;;
38224;SDS011;24025;48.138;11.428;2022-08-30T15:48:48;4.15;;;2.97;;
38224;SDS011;24025;48.138;11.428;2022-08-30T15:51:21;6.47;;;3.13;;
38224;SDS011;24025;48.138;11.428;2022-08-30T15:53:52;5.30;;;3.50;;
38224;SDS011;24025;48.138;11.428;2022-08-30T15:56:23;3.75;;;3.33;;
38224;SDS011;24025;48.138;11.428;2022-08-30T15:58:53;6.75;;;3.00;;
38224;SDS011;24025;48.138;11.428;2022-08-30T16:01:24;3.63;;;3.17;;
38224;SDS011;24025;48.138;11.428;2022-08-30T16:03:55;3.67;;;3.38;;
38224;SDS011;24025;48.138;11.428;2022-08-30T16:06:27;4.72;;;3.25;;
